createdAt,value
2023-04-18T00:00:02.058Z,0.00
2023-04-18T00:01:01.969Z,0.00
2023-04-18T00:02:02.147Z,0.00
2023-04-18T00:03:04.165Z,0.00
2023-04-18T00:04:02.178Z,0.00
2023-04-18T00:05:02.078Z,0.00
2023-04-18T00:06:01.952Z,0.00
2023-04-18T00:07:01.935Z,0.00
2023-04-18T00:08:01.948Z,0.00
2023-04-18T00:09:01.927Z,0.00
2023-04-18T00:10:01.891Z,0.00
2023-04-18T00:11:01.870Z,0.00
2023-04-18T00:12:01.902Z,0.00
2023-04-18T00:13:01.876Z,0.00
2023-04-18T00:14:01.880Z,0.00
2023-04-18T00:15:01.842Z,0.00
2023-04-18T00:16:01.858Z,0.00
2023-04-18T00:17:01.920Z,0.00
2023-04-18T00:18:01.855Z,0.00
2023-04-18T00:19:01.790Z,0.00
2023-04-18T00:20:01.830Z,0.00
2023-04-18T00:21:01.784Z,0.00
2023-04-18T00:22:01.772Z,0.00
2023-04-18T00:23:01.756Z,0.00
2023-04-18T00:24:01.765Z,0.00
2023-04-18T00:25:01.729Z,0.00
2023-04-18T00:26:01.766Z,0.00
2023-04-18T00:27:01.751Z,0.00
2023-04-18T00:28:01.704Z,0.00
2023-04-18T00:29:01.687Z,0.00
2023-04-18T00:30:01.687Z,0.00
2023-04-18T00:31:01.727Z,0.00
2023-04-18T00:32:01.760Z,0.00
2023-04-18T00:33:01.692Z,0.00
2023-04-18T00:34:01.649Z,0.00
2023-04-18T00:35:01.629Z,0.00
2023-04-18T00:36:01.621Z,0.00
2023-04-18T00:37:01.615Z,0.00
2023-04-18T00:38:01.666Z,0.00
2023-04-18T00:39:01.578Z,0.00
2023-04-18T00:40:01.577Z,0.00
2023-04-18T00:41:01.567Z,0.00
2023-04-18T00:42:01.570Z,0.00
2023-04-18T00:43:01.546Z,0.00
2023-04-18T00:44:01.586Z,0.00
2023-04-18T00:45:01.609Z,0.00
2023-04-18T00:46:01.633Z,0.00
2023-04-18T00:47:01.521Z,0.00
2023-04-18T00:48:01.560Z,0.00
2023-04-18T00:49:01.488Z,0.00
2023-04-18T00:50:01.499Z,0.00
2023-04-18T00:51:01.454Z,0.00
2023-04-18T00:52:01.436Z,0.00
2023-04-18T00:53:01.451Z,0.00
2023-04-18T00:54:01.437Z,0.00
2023-04-18T00:55:01.448Z,0.00
2023-04-18T00:56:01.432Z,0.00
2023-04-18T00:57:01.384Z,0.00
2023-04-18T00:58:01.373Z,0.00
2023-04-18T00:59:01.410Z,0.00
2023-04-18T01:00:01.368Z,0.00
2023-04-18T01:01:01.370Z,0.00
2023-04-18T01:02:01.476Z,0.00
2023-04-18T01:03:01.519Z,0.00
2023-04-18T01:04:01.474Z,0.00
2023-04-18T01:05:01.317Z,0.00
2023-04-18T01:06:01.294Z,0.00
2023-04-18T01:07:01.302Z,0.00
2023-04-18T01:08:01.477Z,0.00
2023-04-18T01:09:01.290Z,0.00
2023-04-18T01:10:01.256Z,0.00
2023-04-18T01:11:01.258Z,0.00
2023-04-18T01:12:01.231Z,0.00
2023-04-18T01:13:01.238Z,0.00
2023-04-18T01:14:01.228Z,0.00
2023-04-18T01:15:01.195Z,0.00
2023-04-18T01:16:01.259Z,0.00
2023-04-18T01:17:01.172Z,0.00
2023-04-18T01:18:01.217Z,0.00
2023-04-18T01:19:01.163Z,0.00
2023-04-18T01:20:01.148Z,0.00
2023-04-18T01:21:01.159Z,0.00
2023-04-18T01:22:01.158Z,0.00
2023-04-18T01:23:01.137Z,0.00
2023-04-18T01:24:01.122Z,0.00
2023-04-18T01:25:01.089Z,0.00
2023-04-18T01:26:01.098Z,0.00
2023-04-18T01:27:01.072Z,0.00
2023-04-18T01:28:01.054Z,0.00
2023-04-18T01:29:01.061Z,0.00
2023-04-18T01:30:01.034Z,0.00
2023-04-18T06:00:59.416Z,934.00
2023-04-18T06:02:00.484Z,899.00
2023-04-18T06:03:00.541Z,1015.00
2023-04-18T06:04:00.661Z,988.00
2023-04-18T06:05:00.558Z,971.00
2023-04-18T06:06:00.495Z,914.00
2023-04-18T06:07:00.382Z,895.00
2023-04-18T06:08:00.368Z,911.00
2023-04-18T06:09:00.346Z,882.00
2023-04-18T06:10:00.336Z,908.00
2023-04-18T06:11:00.293Z,1032.00
2023-04-18T06:12:00.311Z,924.00
2023-04-18T06:13:00.277Z,950.00
2023-04-18T06:14:00.271Z,931.00
2023-04-18T06:15:00.290Z,964.00
2023-04-18T06:16:00.343Z,951.00
2023-04-18T06:17:00.244Z,1025.00
2023-04-18T06:18:00.336Z,971.00
2023-04-18T06:19:01.400Z,944.00
2023-04-18T06:20:00.219Z,977.00
2023-04-18T06:21:00.217Z,1046.00
2023-04-18T06:22:00.192Z,950.00
2023-04-18T06:23:00.194Z,924.00
2023-04-18T06:24:00.185Z,957.00
2023-04-18T06:25:00.151Z,887.00
2023-04-18T06:26:00.159Z,920.00
2023-04-18T06:27:00.182Z,948.00
2023-04-18T06:28:00.122Z,904.00
2023-04-18T06:29:00.163Z,913.00
2023-04-18T06:30:00.182Z,933.00
2023-04-18T06:31:00.104Z,869.00
2023-04-18T06:32:00.162Z,935.00
2023-04-18T06:33:00.162Z,770.00
2023-04-18T06:34:00.100Z,813.00
2023-04-18T06:35:00.059Z,889.00
2023-04-18T06:36:00.051Z,829.00
2023-04-18T06:37:00.021Z,818.00
2023-04-18T06:38:00.047Z,842.00
2023-04-18T06:39:00.044Z,900.00
2023-04-18T06:39:59.998Z,769.00
2023-04-18T06:40:59.974Z,760.00
2023-04-18T06:41:59.999Z,861.00
2023-04-18T06:42:59.954Z,1052.00
2023-04-18T06:44:04.092Z,1105.00
2023-04-18T06:45:00.147Z,841.00
2023-04-18T06:45:59.967Z,860.00
2023-04-18T06:46:59.907Z,826.00
2023-04-18T06:47:59.979Z,845.00
2023-04-18T06:48:59.944Z,822.00
2023-04-18T06:49:59.905Z,836.00
2023-04-18T06:50:59.916Z,922.00
2023-04-18T06:51:59.874Z,826.00
2023-04-18T06:52:59.881Z,946.00
2023-04-18T06:53:59.874Z,981.00
2023-04-18T06:54:59.827Z,846.00
2023-04-18T06:55:59.832Z,870.00
2023-04-18T06:56:59.824Z,1012.00
2023-04-18T06:57:59.828Z,928.00
2023-04-18T06:58:59.791Z,960.00
2023-04-18T06:59:59.792Z,934.00
2023-04-18T07:00:59.849Z,1066.00
2023-04-18T07:01:59.814Z,1005.00
2023-04-18T07:02:59.839Z,1092.00
2023-04-18T07:03:59.851Z,914.00
2023-04-18T07:04:59.759Z,1032.00
2023-04-18T07:05:59.784Z,1096.00
2023-04-18T07:06:59.711Z,1029.00
2023-04-18T07:07:59.708Z,1094.00
2023-04-18T07:08:59.694Z,1051.00
2023-04-18T07:09:59.711Z,1050.00
2023-04-18T07:10:59.645Z,941.00
2023-04-18T07:11:59.689Z,1163.00
2023-04-18T07:12:59.635Z,1099.00
2023-04-18T07:13:59.649Z,1061.00
2023-04-18T07:14:59.635Z,1141.00
2023-04-18T07:15:59.628Z,1278.00
2023-04-18T07:16:59.608Z,1402.00
2023-04-18T07:17:59.663Z,1153.00
2023-04-18T07:18:59.574Z,1464.00
2023-04-18T07:19:59.592Z,1318.00
2023-04-18T07:20:59.550Z,1735.00
2023-04-18T07:21:59.634Z,1716.00
2023-04-18T07:22:59.604Z,1664.00
2023-04-18T07:23:59.547Z,1693.00
2023-04-18T07:24:59.514Z,1873.00
2023-04-18T07:25:59.498Z,1567.00
2023-04-18T07:26:59.509Z,1693.00
2023-04-18T07:27:59.474Z,1485.00
2023-04-18T07:28:59.513Z,1674.00
2023-04-18T07:29:59.461Z,1627.00
2023-04-18T07:30:59.497Z,1329.00
2023-04-18T07:31:59.432Z,990.00
2023-04-18T07:32:59.481Z,1090.00
2023-04-18T07:33:59.423Z,1024.00
2023-04-18T07:34:59.455Z,1320.00
2023-04-18T07:35:59.379Z,1323.00
2023-04-18T07:36:59.403Z,1497.00
2023-04-18T07:37:59.360Z,1618.00
2023-04-18T07:38:59.380Z,1814.00
2023-04-18T07:39:59.354Z,1656.00
2023-04-18T07:40:59.379Z,1272.00
2023-04-18T07:41:59.328Z,1227.00
2023-04-18T07:42:59.370Z,1192.00
2023-04-18T07:43:59.303Z,1293.00
2023-04-18T07:44:59.307Z,1216.00
2023-04-18T07:45:59.308Z,1413.00
2023-04-18T07:46:59.295Z,1472.00
2023-04-18T07:47:59.312Z,1644.00
2023-04-18T07:48:59.332Z,1543.00
2023-04-18T07:49:59.247Z,1466.00
2023-04-18T07:50:59.325Z,1477.00
2023-04-18T07:51:59.223Z,1694.00
2023-04-18T07:52:59.231Z,1653.00
2023-04-18T07:53:59.204Z,1724.00
2023-04-18T07:54:59.294Z,1538.00
2023-04-18T07:55:59.177Z,1618.00
2023-04-18T07:56:59.193Z,1911.00
2023-04-18T07:57:59.158Z,1826.00
2023-04-18T07:58:59.183Z,1466.00
2023-04-18T07:59:59.138Z,1558.00
2023-04-18T08:00:59.195Z,2493.00
2023-04-18T08:01:59.167Z,2932.00
2023-04-18T08:02:59.317Z,2794.00
2023-04-18T08:03:59.186Z,2034.00
2023-04-18T08:04:59.147Z,2781.00
2023-04-18T08:05:59.095Z,2943.00
2023-04-18T08:07:00.106Z,2747.00
2023-04-18T08:07:59.058Z,2490.00
2023-04-18T08:08:59.090Z,2379.00
2023-04-18T08:09:59.075Z,2503.00
2023-04-18T08:10:59.054Z,2367.00
2023-04-18T08:11:59.023Z,2461.00
2023-04-18T08:12:59.035Z,2319.00
2023-04-18T08:13:59.092Z,2404.00
2023-04-18T08:14:58.999Z,2189.00
2023-04-18T08:15:59.025Z,2189.00
2023-04-18T08:16:59.011Z,2772.00
2023-04-18T08:17:58.982Z,2500.00
2023-04-18T08:18:58.971Z,2453.00
2023-04-18T08:19:58.965Z,2720.00
2023-04-18T08:20:58.944Z,2091.00
2023-04-18T08:21:58.919Z,2308.00
2023-04-18T08:23:07.533Z,2025.00
2023-04-18T08:23:58.889Z,2023.00
2023-04-18T08:25:04.938Z,1913.00
2023-04-18T08:25:58.880Z,1756.00
2023-04-18T08:26:58.865Z,1934.00
2023-04-18T08:27:58.846Z,1692.00
2023-04-18T08:28:58.837Z,1604.00
2023-04-18T08:29:58.855Z,1912.00
2023-04-18T08:30:58.856Z,1987.00
2023-04-18T08:31:58.835Z,2050.00
2023-04-18T08:32:58.840Z,1660.00
2023-04-18T08:33:58.795Z,2074.00
2023-04-18T08:34:58.845Z,2347.00
2023-04-18T08:35:58.757Z,1827.00
2023-04-18T08:36:58.782Z,2291.00
2023-04-18T08:37:58.757Z,2964.00
2023-04-18T08:38:58.770Z,2032.00
2023-04-18T08:39:58.797Z,2427.00
2023-04-18T08:40:58.729Z,2996.00
2023-04-18T08:41:58.858Z,2662.00
2023-04-18T08:42:58.696Z,1797.00
2023-04-18T08:43:58.671Z,1964.00
2023-04-18T08:44:58.715Z,2484.00
2023-04-18T08:45:58.672Z,2312.00
2023-04-18T08:46:58.658Z,2607.00
2023-04-18T08:47:58.644Z,2715.00
2023-04-18T08:48:58.650Z,2869.00
2023-04-18T08:49:58.681Z,2632.00
2023-04-18T08:50:58.688Z,2948.00
2023-04-18T08:51:58.581Z,2592.00
2023-04-18T08:52:58.600Z,2990.00
2023-04-18T08:53:58.568Z,2834.00
2023-04-18T08:54:58.577Z,2905.00
2023-04-18T08:55:58.565Z,2777.00
2023-04-18T08:56:58.572Z,2535.00
2023-04-18T08:57:58.531Z,2625.00
2023-04-18T08:58:58.520Z,2277.00
2023-04-18T08:59:58.501Z,2096.00
2023-04-18T09:00:58.558Z,2228.00
2023-04-18T09:01:58.537Z,1689.00
2023-04-18T09:02:58.709Z,2599.00
2023-04-18T09:03:58.508Z,2739.00
2023-04-18T09:04:58.473Z,3351.00
2023-04-18T09:05:58.431Z,2764.00
2023-04-18T09:06:58.454Z,3771.00
2023-04-18T09:07:58.428Z,3093.00
2023-04-18T09:08:58.432Z,2576.00
2023-04-18T09:09:58.395Z,2176.00
2023-04-18T09:10:58.397Z,1951.00
2023-04-18T09:11:58.367Z,1912.00
2023-04-18T09:12:58.376Z,2078.00
2023-04-18T09:13:58.348Z,1505.00
2023-04-18T09:14:58.367Z,2475.00
2023-04-18T09:15:58.333Z,3087.00
2023-04-18T09:16:58.358Z,3929.00
2023-04-18T09:17:58.457Z,3109.00
2023-04-18T09:18:58.319Z,2988.00
2023-04-18T09:19:58.290Z,2395.00
2023-04-18T09:20:58.295Z,3010.00
2023-04-18T09:21:58.276Z,2776.00
2023-04-18T09:22:58.276Z,3262.00
2023-04-18T09:23:58.250Z,3258.00
2023-04-18T09:24:58.263Z,3589.00
2023-04-18T09:25:58.245Z,2928.00
2023-04-18T09:26:58.241Z,3493.00
2023-04-18T09:27:58.194Z,2906.00
2023-04-18T09:28:58.195Z,4130.00
2023-04-18T09:29:58.201Z,2607.00
2023-04-18T09:30:58.245Z,3491.00
2023-04-18T09:31:58.173Z,2808.00
2023-04-18T09:32:58.263Z,1491.00
2023-04-18T09:33:58.142Z,2796.00
2023-04-18T09:34:58.386Z,2738.00
2023-04-18T09:35:58.133Z,2079.00
2023-04-18T09:36:58.192Z,1847.00
2023-04-18T09:37:58.086Z,1748.00
2023-04-18T09:38:58.128Z,1752.00
2023-04-18T09:39:58.080Z,1599.00
2023-04-18T09:40:58.084Z,1512.00
2023-04-18T09:41:58.052Z,1484.00
2023-04-18T09:42:58.052Z,1555.00
2023-04-18T09:43:58.019Z,1593.00
2023-04-18T09:44:58.045Z,1395.00
2023-04-18T09:45:58.072Z,1298.00
2023-04-18T09:46:58.022Z,1305.00
2023-04-18T09:47:58.030Z,1329.00
2023-04-18T09:48:58.017Z,1300.00
2023-04-18T09:49:57.969Z,1410.00
2023-04-18T09:50:58.018Z,1911.00
2023-04-18T09:51:57.958Z,2097.00
2023-04-18T09:52:57.943Z,2272.00
2023-04-18T09:53:57.930Z,2745.00
2023-04-18T09:54:57.926Z,2909.00
2023-04-18T09:55:57.989Z,2233.00
2023-04-18T09:56:57.942Z,2648.00
2023-04-18T09:57:57.877Z,3620.00
2023-04-18T09:58:57.892Z,3182.00
2023-04-18T09:59:57.868Z,2924.00
2023-04-18T10:00:57.865Z,2764.00
2023-04-18T10:01:57.961Z,2533.00
2023-04-18T10:02:57.970Z,2888.00
2023-04-18T10:03:57.895Z,2873.00
2023-04-18T10:04:57.912Z,2886.00
2023-04-18T10:05:58.060Z,2512.00
2023-04-18T10:06:57.788Z,2264.00
2023-04-18T10:07:57.782Z,2958.00
2023-04-18T10:08:57.801Z,2222.00
2023-04-18T10:09:57.783Z,1686.00
2023-04-18T10:10:57.765Z,1497.00
2023-04-18T10:11:57.739Z,2491.00
2023-04-18T10:12:57.746Z,3301.00
2023-04-18T10:13:57.721Z,3905.00
2023-04-18T10:14:57.901Z,3748.00
2023-04-18T10:15:57.732Z,3918.00
2023-04-18T10:16:57.681Z,4078.00
2023-04-18T10:18:04.321Z,4633.00
2023-04-18T10:18:57.669Z,4853.00
2023-04-18T10:19:57.636Z,4556.00
2023-04-18T10:20:57.634Z,3635.00
2023-04-18T10:21:57.631Z,2544.00
2023-04-18T10:22:57.647Z,3388.00
2023-04-18T10:23:57.655Z,3299.00
2023-04-18T10:24:57.639Z,2775.00
2023-04-18T10:25:57.575Z,3175.00
2023-04-18T10:26:57.574Z,3927.00
2023-04-18T10:27:57.581Z,3013.00
2023-04-18T10:28:57.556Z,4171.00
2023-04-18T10:29:57.554Z,4196.00
2023-04-18T10:30:57.558Z,4065.00
2023-04-18T10:31:57.557Z,4223.00
2023-04-18T10:32:57.568Z,4706.00
2023-04-18T10:34:57.499Z,3375.00
2023-04-18T10:35:57.488Z,3077.00
2023-04-18T10:36:57.503Z,2771.00
2023-04-18T10:37:57.445Z,3499.00
2023-04-18T10:38:57.456Z,2911.00
2023-04-18T10:39:57.432Z,3529.00
2023-04-18T10:40:57.439Z,3878.00
2023-04-18T10:41:57.428Z,4041.00
2023-04-18T10:42:57.433Z,3422.00
2023-04-18T10:43:57.387Z,3578.00
2023-04-18T10:44:57.400Z,3392.00
2023-04-18T10:45:57.385Z,3715.00
2023-04-18T10:46:57.431Z,2938.00
2023-04-18T10:47:57.386Z,3292.00
2023-04-18T10:48:57.370Z,2830.00
2023-04-18T10:49:57.368Z,2756.00
2023-04-18T10:50:57.357Z,2191.00
2023-04-18T10:51:57.300Z,3367.00
2023-04-18T10:52:57.370Z,3221.00
2023-04-18T10:53:57.339Z,1632.00
2023-04-18T10:54:58.985Z,2719.00
2023-04-18T10:55:57.259Z,4154.00
2023-04-18T10:56:57.275Z,3494.00
2023-04-18T10:57:57.236Z,3155.00
2023-04-18T10:58:57.267Z,2370.00
2023-04-18T10:59:57.287Z,2444.00
2023-04-18T11:00:57.250Z,3044.00
2023-04-18T11:01:57.332Z,1899.00
2023-04-18T11:02:57.334Z,2671.00
2023-04-18T11:03:57.294Z,3238.00
2023-04-18T11:04:57.184Z,2749.00
2023-04-18T11:05:57.161Z,2219.00
2023-04-18T11:06:57.172Z,4115.00
2023-04-18T11:07:57.140Z,3543.00
2023-04-18T11:08:57.147Z,3124.00
2023-04-18T11:09:57.123Z,4048.00
2023-04-18T11:10:57.195Z,3358.00
2023-04-18T11:11:57.098Z,2646.00
2023-04-18T11:12:57.088Z,2317.00
2023-04-18T11:13:57.076Z,2563.00
2023-04-18T11:14:57.072Z,2374.00
2023-04-18T11:15:57.053Z,2903.00
2023-04-18T11:16:57.078Z,1779.00
2023-04-18T11:17:57.068Z,3092.00
2023-04-18T11:18:57.038Z,3822.00
2023-04-18T11:19:57.004Z,3771.00
2023-04-18T11:20:57.014Z,4037.00
2023-04-18T11:21:56.986Z,2802.00
2023-04-18T11:22:56.981Z,3866.00
2023-04-18T11:23:56.982Z,4483.00
2023-04-18T11:24:56.971Z,4437.00
2023-04-18T11:25:56.933Z,3922.00
2023-04-18T11:26:56.980Z,3650.00
2023-04-18T11:27:57.002Z,3424.00
2023-04-18T11:28:56.948Z,2238.00
2023-04-18T11:29:56.905Z,2503.00
2023-04-18T11:30:56.908Z,2694.00
2023-04-18T11:31:58.469Z,3125.00
2023-04-18T11:32:56.955Z,2970.00
2023-04-18T11:33:56.894Z,4174.00
2023-04-18T11:34:56.854Z,3896.00
2023-04-18T11:35:56.840Z,4184.00
2023-04-18T11:36:56.839Z,3307.00
2023-04-18T11:37:56.801Z,2716.00
2023-04-18T11:38:56.838Z,2663.00
2023-04-18T11:39:56.825Z,3440.00
2023-04-18T11:40:56.823Z,3927.00
2023-04-18T11:41:56.790Z,3799.00
2023-04-18T11:42:56.763Z,3595.00
2023-04-18T11:43:56.774Z,3032.00
2023-04-18T11:44:56.754Z,3704.00
2023-04-18T11:45:56.782Z,3860.00
2023-04-18T11:46:56.711Z,3214.00
2023-04-18T11:47:56.762Z,3573.00
2023-04-18T11:48:56.694Z,2664.00
2023-04-18T11:49:57.269Z,1276.00
2023-04-18T11:50:56.714Z,3555.00
2023-04-18T11:51:56.713Z,3976.00
2023-04-18T11:52:56.653Z,3215.00
2023-04-18T11:53:56.649Z,2999.00
2023-04-18T11:54:56.634Z,2384.00
2023-04-18T11:55:56.659Z,1903.00
2023-04-18T11:56:56.649Z,1477.00
2023-04-18T11:57:56.619Z,1073.00
2023-04-18T11:58:56.582Z,1241.00
2023-04-18T11:59:56.605Z,1933.00
2023-04-18T12:00:56.565Z,2016.00
2023-04-18T12:01:58.845Z,1547.00
2023-04-18T12:02:56.648Z,2697.00
2023-04-18T12:03:56.779Z,3377.00
2023-04-18T12:04:56.905Z,3931.00
2023-04-18T12:05:56.619Z,2810.00
2023-04-18T12:06:56.502Z,3260.00
2023-04-18T12:07:56.516Z,2547.00
2023-04-18T12:08:56.522Z,1979.00
2023-04-18T12:09:56.482Z,1779.00
2023-04-18T12:10:56.471Z,1784.00
2023-04-18T12:11:56.493Z,1817.00
2023-04-18T12:12:56.435Z,1916.00
2023-04-18T12:13:56.470Z,1780.00
2023-04-18T12:14:56.456Z,2150.00
2023-04-18T12:15:56.470Z,2238.00
2023-04-18T12:16:56.392Z,2114.00
2023-04-18T12:17:56.445Z,3043.00
2023-04-18T12:18:56.409Z,3906.00
2023-04-18T12:19:56.380Z,3596.00
2023-04-18T12:20:56.347Z,3142.00
2023-04-18T12:21:56.356Z,3464.00
2023-04-18T12:22:56.336Z,3277.00
2023-04-18T12:23:56.346Z,3021.00
2023-04-18T12:24:56.336Z,3811.00
2023-04-18T12:25:56.334Z,3349.00
2023-04-18T12:26:56.310Z,2814.00
2023-04-18T12:27:56.306Z,3342.00
2023-04-18T12:28:56.276Z,3053.00
2023-04-18T12:29:56.299Z,2828.00
2023-04-18T12:30:56.285Z,2350.00
2023-04-18T12:31:56.310Z,2005.00
2023-04-18T12:32:56.254Z,1786.00
2023-04-18T12:33:56.223Z,2250.00
2023-04-18T12:34:56.202Z,2270.00
2023-04-18T12:35:56.208Z,2767.00
2023-04-18T12:36:56.202Z,2623.00
2023-04-18T12:37:56.187Z,2098.00
2023-04-18T12:38:56.185Z,1683.00
2023-04-18T12:39:56.158Z,1452.00
2023-04-18T12:40:56.134Z,1316.00
2023-04-18T12:41:56.139Z,1081.00
2023-04-18T12:42:56.148Z,1108.00
2023-04-18T12:43:56.117Z,1483.00
2023-04-18T12:44:56.086Z,1164.00
2023-04-18T12:45:56.095Z,981.00
2023-04-18T12:46:56.084Z,966.00
2023-04-18T12:47:56.143Z,902.00
2023-04-18T12:48:56.072Z,892.00
2023-04-18T12:49:56.054Z,967.00
2023-04-18T12:50:56.021Z,860.00
2023-04-18T12:51:56.038Z,783.00
2023-04-18T12:52:56.004Z,635.00
2023-04-18T12:53:56.032Z,1081.00
2023-04-18T12:54:55.997Z,1603.00
2023-04-18T12:55:56.001Z,1533.00
2023-04-18T12:56:55.953Z,1412.00
2023-04-18T12:57:55.969Z,1860.00
2023-04-18T12:58:55.936Z,1954.00
2023-04-18T12:59:55.949Z,1724.00
2023-04-18T13:00:55.996Z,1491.00
2023-04-18T13:01:56.046Z,1537.00
2023-04-18T13:02:56.085Z,1275.00
2023-04-18T13:04:08.298Z,1249.00
2023-04-18T13:04:55.903Z,2317.00
2023-04-18T13:05:55.879Z,2858.00
2023-04-18T13:06:55.877Z,2732.00
2023-04-18T13:08:08.655Z,2527.00
2023-04-18T13:08:55.843Z,3119.00
2023-04-18T13:09:55.846Z,2742.00
2023-04-18T13:10:55.827Z,2086.00
2023-04-18T13:11:55.831Z,1577.00
2023-04-18T13:12:55.813Z,1174.00
2023-04-18T13:13:55.803Z,830.00
2023-04-18T13:14:55.775Z,670.00
2023-04-18T13:15:55.775Z,1116.00
2023-04-18T13:16:55.802Z,1106.00
2023-04-18T13:17:55.814Z,917.00
2023-04-18T13:18:55.750Z,749.00
2023-04-18T13:19:55.748Z,667.00
2023-04-18T13:20:55.725Z,632.00
2023-04-18T13:21:55.739Z,716.00
2023-04-18T13:22:55.708Z,796.00
2023-04-18T13:23:55.710Z,625.00
2023-04-18T13:24:55.700Z,780.00
2023-04-18T13:25:55.685Z,747.00
2023-04-18T13:26:55.659Z,1086.00
2023-04-18T13:27:55.662Z,1890.00
2023-04-18T13:28:55.646Z,1957.00
2023-04-18T13:29:55.627Z,1771.00
2023-04-18T13:30:55.616Z,1801.00
2023-04-18T13:31:55.675Z,2117.00
2023-04-18T13:32:55.642Z,2312.00
2023-04-18T13:33:55.697Z,2079.00
2023-04-18T13:34:55.581Z,1751.00
2023-04-18T13:35:55.585Z,1466.00
2023-04-18T13:36:56.369Z,1513.00
2023-04-18T13:37:55.548Z,2071.00
2023-04-18T13:38:55.520Z,2410.00
2023-04-18T13:39:55.532Z,2334.00
2023-04-18T13:41:08.558Z,2719.00
2023-04-18T13:41:55.497Z,2733.00
2023-04-18T13:42:55.496Z,2659.00
2023-04-18T13:43:55.563Z,3122.00
2023-04-18T13:44:55.463Z,3233.00
2023-04-18T13:45:55.477Z,2471.00
2023-04-18T13:46:55.433Z,3471.00
2023-04-18T13:47:55.460Z,3266.00
2023-04-18T13:48:55.431Z,3134.00
2023-04-18T13:49:55.420Z,3861.00
2023-04-18T13:50:55.385Z,3525.00
2023-04-18T13:51:55.407Z,3113.00
2023-04-18T13:52:55.387Z,2747.00
2023-04-18T13:53:55.374Z,2435.00
2023-04-18T13:54:55.371Z,2506.00
2023-04-18T13:55:55.352Z,2393.00
2023-04-18T13:56:55.343Z,2324.00
2023-04-18T13:57:55.366Z,2251.00
2023-04-18T13:58:55.302Z,2324.00
2023-04-18T13:59:55.338Z,2450.00
2023-04-18T14:00:55.329Z,3524.00
2023-04-18T14:01:55.369Z,4111.00
2023-04-18T14:02:55.437Z,4873.00
2023-04-18T14:03:55.499Z,4319.00
2023-04-18T14:04:55.483Z,4174.00
2023-04-18T14:05:55.263Z,3894.00
2023-04-18T14:06:55.227Z,3385.00
2023-04-18T14:07:55.229Z,5061.00
2023-04-18T14:08:55.231Z,4910.00
2023-04-18T14:09:55.191Z,4589.00
2023-04-18T14:10:55.166Z,3074.00
2023-04-18T14:11:55.196Z,2971.00
2023-04-18T14:12:55.171Z,2785.00
2023-04-18T14:13:55.171Z,3364.00
2023-04-18T14:14:55.176Z,3245.00
2023-04-18T14:15:55.149Z,3305.00
2023-04-18T14:16:55.122Z,3173.00
2023-04-18T14:17:55.193Z,3424.00
2023-04-18T14:18:55.094Z,3411.00
2023-04-18T14:19:55.103Z,3028.00
2023-04-18T14:20:55.100Z,2893.00
2023-04-18T14:21:55.115Z,2795.00
2023-04-18T14:22:55.039Z,2647.00
2023-04-18T14:23:55.061Z,2282.00
2023-04-18T14:24:55.034Z,1901.00
2023-04-18T14:25:55.022Z,1964.00
2023-04-18T14:26:55.056Z,2427.00
2023-04-18T14:27:56.417Z,2646.00
2023-04-18T14:28:54.999Z,3154.00
2023-04-18T14:29:55.015Z,3283.00
2023-04-18T14:30:54.974Z,3220.00
2023-04-18T14:31:54.953Z,3182.00
2023-04-18T14:32:54.974Z,3115.00
2023-04-18T14:33:54.942Z,3028.00
2023-04-18T14:34:54.921Z,3309.00
2023-04-18T14:35:54.929Z,2843.00
2023-04-18T14:36:54.912Z,2354.00
2023-04-18T14:37:54.894Z,2063.00
2023-04-18T14:38:54.895Z,1901.00
2023-04-18T14:39:54.900Z,1698.00
2023-04-18T14:40:54.870Z,1537.00
2023-04-18T14:41:54.882Z,1608.00
2023-04-18T14:42:54.836Z,1445.00
2023-04-18T14:43:54.845Z,1510.00
2023-04-18T14:44:54.836Z,1858.00
2023-04-18T14:45:54.813Z,2145.00
2023-04-18T14:46:54.835Z,2550.00
2023-04-18T14:47:54.841Z,2530.00
2023-04-18T14:48:54.768Z,2516.00
2023-04-18T14:49:54.775Z,2202.00
2023-04-18T14:50:54.755Z,2818.00
2023-04-18T14:51:54.746Z,2832.00
2023-04-18T14:52:54.740Z,3196.00
2023-04-18T14:53:54.762Z,3700.00
2023-04-18T14:54:54.700Z,3266.00
2023-04-18T14:55:54.702Z,3986.00
2023-04-18T14:56:54.726Z,4180.00
2023-04-18T14:57:54.681Z,3862.00
2023-04-18T14:58:54.670Z,4725.00
2023-04-18T14:59:54.676Z,5431.00
2023-04-18T15:00:54.641Z,5004.00
2023-04-18T15:01:54.724Z,3433.00
2023-04-18T15:02:54.936Z,5967.00
2023-04-18T15:03:54.797Z,5151.00
2023-04-18T15:04:54.672Z,1717.00
2023-04-18T15:05:54.639Z,2930.00
2023-04-18T15:06:54.557Z,4474.00
2023-04-18T15:07:54.574Z,17864.00
2023-04-18T15:08:54.569Z,13560.00
2023-04-18T15:09:54.551Z,3843.00
2023-04-18T15:10:54.553Z,2411.00
2023-04-18T15:11:54.548Z,4364.00
2023-04-18T15:12:54.553Z,3014.00
2023-04-18T15:13:54.541Z,2361.00
2023-04-18T15:14:54.515Z,2116.00
2023-04-18T15:15:54.572Z,2691.00
2023-04-18T15:16:54.567Z,23329.00
2023-04-18T15:17:54.523Z,13010.00
2023-04-18T15:18:54.438Z,5681.00
2023-04-18T15:19:54.452Z,1929.00
2023-04-18T15:20:54.442Z,6821.00
2023-04-18T15:21:54.428Z,9514.00
2023-04-18T15:22:54.434Z,15963.00
2023-04-18T15:23:54.425Z,14981.00
2023-04-18T15:24:54.427Z,14887.00
2023-04-18T15:25:54.555Z,15811.00
2023-04-18T15:26:54.389Z,14065.00
2023-04-18T15:27:54.377Z,15416.00
2023-04-18T15:28:54.367Z,14562.00
2023-04-18T15:29:54.353Z,14019.00
2023-04-18T15:30:54.311Z,21245.00
2023-04-18T15:31:54.417Z,16107.00
2023-04-18T15:32:54.333Z,12518.00
2023-04-18T15:33:54.300Z,13283.00
2023-04-18T15:34:54.287Z,14269.00
2023-04-18T15:35:54.296Z,18012.00
2023-04-18T15:36:54.260Z,20157.00
2023-04-18T15:37:54.263Z,15156.00
2023-04-18T15:38:54.249Z,13307.00
2023-04-18T15:39:54.231Z,16054.00
2023-04-18T15:40:54.225Z,16497.00
2023-04-18T15:41:54.244Z,14041.00
2023-04-18T15:42:54.204Z,12953.00
2023-04-18T15:43:54.239Z,16375.00
2023-04-18T15:44:54.165Z,14572.00
2023-04-18T15:45:54.221Z,17064.00
2023-04-18T15:46:54.172Z,3427.00
2023-04-18T15:47:54.220Z,13250.00
2023-04-18T15:48:54.151Z,3836.00
2023-04-18T15:49:54.141Z,15774.00
2023-04-18T15:50:54.109Z,5997.00
2023-04-18T15:51:54.119Z,2015.00
2023-04-18T15:52:54.094Z,1763.00
2023-04-18T15:53:54.097Z,1704.00
2023-04-18T15:54:54.059Z,1623.00
2023-04-18T15:55:54.072Z,1725.00
2023-04-18T15:56:54.075Z,2002.00
2023-04-18T15:57:54.033Z,1684.00
2023-04-18T15:58:54.059Z,1941.00
2023-04-18T15:59:54.050Z,3070.00
2023-04-18T16:00:54.096Z,3531.00
2023-04-18T16:01:54.082Z,3501.00
2023-04-18T16:02:54.180Z,2681.00
2023-04-18T16:04:00.020Z,1972.00
2023-04-18T16:04:54.624Z,1905.00
2023-04-18T16:06:00.042Z,1590.00
2023-04-18T16:06:59.951Z,1363.00
2023-04-18T16:07:53.923Z,1414.00
2023-04-18T16:08:53.907Z,1610.00
2023-04-18T16:09:53.905Z,1863.00
2023-04-18T16:10:53.895Z,1766.00
2023-04-18T16:11:53.906Z,1403.00
2023-04-18T16:12:53.871Z,1386.00
2023-04-18T16:13:53.877Z,1557.00
2023-04-18T16:14:53.850Z,1722.00
2023-04-18T16:15:53.895Z,2236.00
2023-04-18T16:16:53.849Z,2059.00
2023-04-18T16:17:53.935Z,1557.00
2023-04-18T16:18:53.812Z,1512.00
2023-04-18T16:19:53.791Z,1370.00
2023-04-18T16:20:53.806Z,1072.00
2023-04-18T16:21:53.760Z,1144.00
2023-04-18T16:22:53.788Z,1172.00
2023-04-18T16:23:53.775Z,1258.00
2023-04-18T16:24:53.757Z,1337.00
2023-04-18T16:25:53.718Z,1472.00
2023-04-18T16:26:53.736Z,1527.00
2023-04-18T16:27:53.719Z,1537.00
2023-04-18T16:28:53.700Z,1506.00
2023-04-18T16:29:53.738Z,1367.00
2023-04-18T16:30:55.627Z,1269.00
2023-04-18T16:31:53.711Z,1248.00
2023-04-18T16:32:53.710Z,1170.00
2023-04-18T16:33:53.685Z,1111.00
2023-04-18T16:34:53.644Z,1152.00
2023-04-18T16:35:53.647Z,1006.00
2023-04-18T16:36:55.143Z,908.00
2023-04-18T16:37:53.609Z,861.00
2023-04-18T16:38:53.611Z,890.00
2023-04-18T16:39:53.575Z,937.00
2023-04-18T16:40:53.639Z,959.00
2023-04-18T16:41:53.551Z,876.00
2023-04-18T16:42:53.589Z,803.00
2023-04-18T16:43:53.540Z,771.00
2023-04-18T16:44:53.537Z,787.00
2023-04-18T16:45:53.534Z,705.00